Terminal Aerodrome Forecast
Issued by NWS

Home | Current Version | Previous Version | Text Only | Print | Product List | Glossary On
Versions: 1 2 3 4 5 6 7 8 9 10 11 12 13 14 15
000
FTUS43 KLSX 171000 AAA
TAFSUS
TAF AMD
KSUS 171003Z 1710/1806 00000KT P6SM BKN250 WS015/25035KT
     FM171300 20006KT P6SM BKN250
     FM171500 22007KT P6SM SCT040 BKN150
     FM172000 28010KT P6SM BKN070
     FM180300 VRB05KT P6SM OVC050=

USA.gov is the U.S. government's official web portal to all federal, state and local government web resources and services.